sensor_id;sensor_type;location;lat;lon;timestamp;pressure;altitude;pressure_sealevel;temperature;humidity
36598;BME280;22607;49.550;11.940;2023-04-26T00:00:49;96738.84;;;5.72;88.28
36598;BME280;22607;49.550;11.940;2023-04-26T00:03:16;96735.63;;;5.60;88.90
36598;BME280;22607;49.550;11.940;2023-04-26T00:05:43;96740.56;;;5.53;90.49
36598;BME280;22607;49.550;11.940;2023-04-26T00:08:09;96735.13;;;5.46;91.94
36598;BME280;22607;49.550;11.940;2023-04-26T00:10:35;96740.59;;;5.43;89.96
36598;BME280;22607;49.550;11.940;2023-04-26T00:13:02;96742.03;;;5.18;92.02
36598;BME280;22607;49.550;11.940;2023-04-26T00:15:28;96745.09;;;4.93;95.95
36598;BME280;22607;49.550;11.940;2023-04-26T00:17:55;96738.97;;;5.42;90.61
36598;BME280;22607;49.550;11.940;2023-04-26T00:20:22;96739.19;;;5.59;88.31
36598;BME280;22607;49.550;11.940;2023-04-26T00:22:48;96740.72;;;5.51;87.88
36598;BME280;22607;49.550;11.940;2023-04-26T00:25:15;96742.47;;;5.61;87.47
36598;BME280;22607;49.550;11.940;2023-04-26T00:27:41;96754.44;;;5.54;88.03
36598;BME280;22607;49.550;11.940;2023-04-26T00:30:08;96747.09;;;5.67;85.54
36598;BME280;22607;49.550;11.940;2023-04-26T00:32:34;96753.66;;;5.71;83.26
36598;BME280;22607;49.550;11.940;2023-04-26T00:35:04;96747.94;;;5.68;83.37
36598;BME280;22607;49.550;11.940;2023-04-26T00:37:31;96753.63;;;5.43;84.74
36598;BME280;22607;49.550;11.940;2023-04-26T00:39:57;96759.06;;;4.92;90.79
36598;BME280;22607;49.550;11.940;2023-04-26T00:42:25;96759.06;;;4.92;91.87
36598;BME280;22607;49.550;11.940;2023-04-26T00:44:52;96758.34;;;5.20;90.82
36598;BME280;22607;49.550;11.940;2023-04-26T00:47:26;96758.22;;;5.21;89.31
36598;BME280;22607;49.550;11.940;2023-04-26T00:49:55;96759.59;;;5.06;90.87
36598;BME280;22607;49.550;11.940;2023-04-26T00:52:22;96759.19;;;5.01;91.95
36598;BME280;22607;49.550;11.940;2023-04-26T00:54:49;96760.56;;;5.05;90.82
36598;BME280;22607;49.550;11.940;2023-04-26T00:57:16;96764.66;;;4.48;97.81
36598;BME280;22607;49.550;11.940;2023-04-26T00:59:43;96761.00;;;4.70;94.47
36598;BME280;22607;49.550;11.940;2023-04-26T01:02:09;96763.44;;;4.52;98.38
36598;BME280;22607;49.550;11.940;2023-04-26T01:04:36;96760.03;;;4.71;96.19
36598;BME280;22607;49.550;11.940;2023-04-26T01:07:02;96765.38;;;4.60;97.01
36598;BME280;22607;49.550;11.940;2023-04-26T01:09:29;96765.38;;;4.50;98.44
36598;BME280;22607;49.550;11.940;2023-04-26T01:11:57;96761.25;;;4.67;96.95
36598;BME280;22607;49.550;11.940;2023-04-26T01:14:23;96764.41;;;4.51;100.00
36598;BME280;22607;49.550;11.940;2023-04-26T01:16:50;96754.41;;;4.66;99.08
36598;BME280;22607;49.550;11.940;2023-04-26T01:19:17;96765.78;;;4.65;98.38
36598;BME280;22607;49.550;11.940;2023-04-26T01:24:12;96771.41;;;4.51;98.03
36598;BME280;22607;49.550;11.940;2023-04-26T01:26:39;96766.19;;;4.51;95.72
36598;BME280;22607;49.550;11.940;2023-04-26T01:29:20;96768.09;;;4.49;97.92
36598;BME280;22607;49.550;11.940;2023-04-26T01:31:47;96769.69;;;4.20;100.00
36598;BME280;22607;49.550;11.940;2023-04-26T01:34:14;96765.47;;;4.39;98.38
36598;BME280;22607;49.550;11.940;2023-04-26T01:36:41;96776.53;;;4.21;97.19
36598;BME280;22607;49.550;11.940;2023-04-26T01:39:07;96777.22;;;4.13;98.45
36598;BME280;22607;49.550;11.940;2023-04-26T01:41:34;96777.63;;;4.18;96.49
36598;BME280;22607;49.550;11.940;2023-04-26T01:44:01;96780.31;;;4.07;97.52
36598;BME280;22607;49.550;11.940;2023-04-26T01:46:27;96783.53;;;3.89;100.00
36598;BME280;22607;49.550;11.940;2023-04-26T01:48:54;96792.56;;;3.85;100.00
36598;BME280;22607;49.550;11.940;2023-04-26T01:51:20;96794.16;;;3.76;100.00
36598;BME280;22607;49.550;11.940;2023-04-26T01:53:47;96780.66;;;3.83;100.00
36598;BME280;22607;49.550;11.940;2023-04-26T01:56:13;96782.94;;;3.76;100.00
36598;BME280;22607;49.550;11.940;2023-04-26T01:58:39;96786.50;;;3.75;100.00
36598;BME280;22607;49.550;11.940;2023-04-26T02:01:07;96792.44;;;3.87;99.84
36598;BME280;22607;49.550;11.940;2023-04-26T02:03:34;96792.22;;;3.68;100.00
36598;BME280;22607;49.550;11.940;2023-04-26T02:06:01;96785.53;;;3.76;100.00
36598;BME280;22607;49.550;11.940;2023-04-26T02:08:27;96788.41;;;3.73;99.90
36598;BME280;22607;49.550;11.940;2023-04-26T02:10:55;96794.38;;;3.63;100.00
36598;BME280;22607;49.550;11.940;2023-04-26T02:13:21;96786.78;;;3.72;100.00
36598;BME280;22607;49.550;11.940;2023-04-26T02:15:48;96784.06;;;3.83;97.84
36598;BME280;22607;49.550;11.940;2023-04-26T02:18:15;96783.69;;;3.88;91.99
36598;BME280;22607;49.550;11.940;2023-04-26T02:20:43;96790.41;;;3.90;95.09
36598;BME280;22607;49.550;11.940;2023-04-26T02:23:10;96786.13;;;3.79;98.32
36598;BME280;22607;49.550;11.940;2023-04-26T02:25:37;96792.59;;;3.95;98.48
36598;BME280;22607;49.550;11.940;2023-04-26T02:28:04;96791.69;;;4.06;97.35
36598;BME280;22607;49.550;11.940;2023-04-26T02:30:31;96792.44;;;3.87;100.00
36598;BME280;22607;49.550;11.940;2023-04-26T02:32:57;96787.03;;;4.00;100.00
36598;BME280;22607;49.550;11.940;2023-04-26T02:35:24;96790.28;;;4.02;100.00
36598;BME280;22607;49.550;11.940;2023-04-26T02:37:51;96782.75;;;3.99;100.00
36598;BME280;22607;49.550;11.940;2023-04-26T02:40:17;96780.16;;;3.99;100.00
36598;BME280;22607;49.550;11.940;2023-04-26T02:42:44;96777.56;;;3.99;100.00
36598;BME280;22607;49.550;11.940;2023-04-26T02:45:10;96775.25;;;3.96;100.00
36598;BME280;22607;49.550;11.940;2023-04-26T02:47:37;96775.50;;;3.92;100.00
36598;BME280;22607;49.550;11.940;2023-04-26T02:50:04;96775.50;;;3.92;100.00
36598;BME280;22607;49.550;11.940;2023-04-26T02:52:31;96777.13;;;3.93;100.00
36598;BME280;22607;49.550;11.940;2023-04-26T02:54:58;96782.56;;;3.80;100.00
36598;BME280;22607;49.550;11.940;2023-04-26T02:57:24;96780.44;;;3.64;100.00
36598;BME280;22607;49.550;11.940;2023-04-26T02:59:51;96780.44;;;3.64;100.00
36598;BME280;22607;49.550;11.940;2023-04-26T03:02:17;96781.47;;;3.52;100.00
36598;BME280;22607;49.550;11.940;2023-04-26T03:04:44;96783.84;;;3.34;100.00
36598;BME280;22607;49.550;11.940;2023-04-26T03:07:11;96781.56;;;3.19;100.00
36598;BME280;22607;49.550;11.940;2023-04-26T03:09:38;96783.34;;;2.97;100.00
36598;BME280;22607;49.550;11.940;2023-04-26T03:12:08;96778.91;;;3.09;100.00
36598;BME280;22607;49.550;11.940;2023-04-26T03:14:34;96778.34;;;3.27;100.00
36598;BME280;22607;49.550;11.940;2023-04-26T03:17:01;96784.81;;;3.11;100.00
36598;BME280;22607;49.550;11.940;2023-04-26T03:19:28;96787.72;;;2.97;100.00
36598;BME280;22607;49.550;11.940;2023-04-26T03:21:54;96786.66;;;3.21;100.00
36598;BME280;22607;49.550;11.940;2023-04-26T03:24:22;96788.63;;;2.96;100.00
36598;BME280;22607;49.550;11.940;2023-04-26T03:26:50;96793.31;;;2.81;100.00
36598;BME280;22607;49.550;11.940;2023-04-26T03:29:16;96795.53;;;2.85;100.00
36598;BME280;22607;49.550;11.940;2023-04-26T03:31:43;96794.03;;;3.04;100.00
36598;BME280;22607;49.550;11.940;2023-04-26T03:34:09;96794.09;;;2.93;100.00
36598;BME280;22607;49.550;11.940;2023-04-26T03:36:36;96801.56;;;2.86;100.00
36598;BME280;22607;49.550;11.940;2023-04-26T03:39:03;96800.81;;;2.62;100.00
36598;BME280;22607;49.550;11.940;2023-04-26T03:41:33;96803.94;;;2.78;100.00
36598;BME280;22607;49.550;11.940;2023-04-26T03:44:02;96815.06;;;2.57;100.00
36598;BME280;22607;49.550;11.940;2023-04-26T03:46:28;96812.22;;;2.71;100.00
36598;BME280;22607;49.550;11.940;2023-04-26T03:48:56;96814.03;;;2.59;100.00
36598;BME280;22607;49.550;11.940;2023-04-26T03:51:22;96811.56;;;2.46;100.00
36598;BME280;22607;49.550;11.940;2023-04-26T03:53:48;96808.00;;;2.59;100.00
36598;BME280;22607;49.550;11.940;2023-04-26T03:56:16;96813.53;;;2.54;100.00
36598;BME280;22607;49.550;11.940;2023-04-26T03:58:42;96813.97;;;2.71;100.00
36598;BME280;22607;49.550;11.940;2023-04-26T04:01:08;96817.66;;;2.57;100.00
36598;BME280;22607;49.550;11.940;2023-04-26T04:03:35;96820.00;;;2.71;100.00
36598;BME280;22607;49.550;11.940;2023-04-26T04:06:06;96825.13;;;2.39;100.00
36598;BME280;22607;49.550;11.940;2023-04-26T04:08:33;96827.16;;;2.35;100.00
36598;BME280;22607;49.550;11.940;2023-04-26T04:11:00;96820.41;;;2.55;100.00
36598;BME280;22607;49.550;11.940;2023-04-26T04:13:27;96825.88;;;2.41;100.00
36598;BME280;22607;49.550;11.940;2023-04-26T04:15:54;96827.38;;;2.43;100.00
36598;BME280;22607;49.550;11.940;2023-04-26T04:18:20;96823.38;;;2.39;100.00
36598;BME280;22607;49.550;11.940;2023-04-26T04:20:46;96828.22;;;2.32;100.00
36598;BME280;22607;49.550;11.940;2023-04-26T04:23:13;96831.75;;;2.20;100.00
36598;BME280;22607;49.550;11.940;2023-04-26T04:25:39;96829.63;;;2.25;100.00
36598;BME280;22607;49.550;11.940;2023-04-26T04:28:06;96835.78;;;2.01;100.00
36598;BME280;22607;49.550;11.940;2023-04-26T04:30:33;96836.00;;;2.21;100.00
36598;BME280;22607;49.550;11.940;2023-04-26T04:33:00;96840.84;;;2.14;100.00
36598;BME280;22607;49.550;11.940;2023-04-26T04:35:29;96840.97;;;2.13;100.00
36598;BME280;22607;49.550;11.940;2023-04-26T04:37:59;96848.50;;;2.16;100.00
36598;BME280;22607;49.550;11.940;2023-04-26T04:40:26;96841.53;;;2.39;100.00
36598;BME280;22607;49.550;11.940;2023-04-26T04:42:53;96846.94;;;2.36;100.00
36598;BME280;22607;49.550;11.940;2023-04-26T04:45:20;96846.59;;;2.29;100.00
36598;BME280;22607;49.550;11.940;2023-04-26T04:47:47;96847.06;;;2.46;100.00
36598;BME280;22607;49.550;11.940;2023-04-26T04:50:13;96846.59;;;2.41;100.00
36598;BME280;22607;49.550;11.940;2023-04-26T04:52:40;96844.91;;;2.51;100.00
36598;BME280;22607;49.550;11.940;2023-04-26T04:55:14;96854.41;;;2.73;100.00
36598;BME280;22607;49.550;11.940;2023-04-26T04:57:41;96855.44;;;2.82;100.00
36598;BME280;22607;49.550;11.940;2023-04-26T05:00:08;96859.44;;;2.86;100.00
36598;BME280;22607;49.550;11.940;2023-04-26T05:02:35;96857.72;;;3.08;100.00
36598;BME280;22607;49.550;11.940;2023-04-26T05:05:02;96855.63;;;4.28;100.00
36598;BME280;22607;49.550;11.940;2023-04-26T05:07:30;96844.28;;;5.20;91.03
36598;BME280;22607;49.550;11.940;2023-04-26T05:09:57;96845.81;;;6.28;83.54
36598;BME280;22607;49.550;11.940;2023-04-26T05:12:24;96844.41;;;6.34;80.29
36598;BME280;22607;49.550;11.940;2023-04-26T05:14:50;96839.47;;;6.77;77.05
36598;BME280;22607;49.550;11.940;2023-04-26T05:17:17;96841.00;;;6.79;74.85
36598;BME280;22607;49.550;11.940;2023-04-26T05:19:43;96846.06;;;7.35;72.37
36598;BME280;22607;49.550;11.940;2023-04-26T05:22:10;96848.97;;;8.12;65.99
36598;BME280;22607;49.550;11.940;2023-04-26T05:24:46;96851.88;;;7.74;66.76
36598;BME280;22607;49.550;11.940;2023-04-26T05:27:12;96845.25;;;8.58;63.94
36598;BME280;22607;49.550;11.940;2023-04-26T05:29:39;96841.91;;;9.65;60.74
36598;BME280;22607;49.550;11.940;2023-04-26T05:32:06;96839.53;;;10.04;58.31
36598;BME280;22607;49.550;11.940;2023-04-26T05:34:33;96841.03;;;10.46;57.42
36598;BME280;22607;49.550;11.940;2023-04-26T05:36:59;96854.34;;;10.76;56.55
36598;BME280;22607;49.550;11.940;2023-04-26T05:39:26;96853.19;;;11.02;54.86
36598;BME280;22607;49.550;11.940;2023-04-26T05:41:52;96857.88;;;11.39;54.18
36598;BME280;22607;49.550;11.940;2023-04-26T05:44:19;96853.06;;;11.81;53.57
36598;BME280;22607;49.550;11.940;2023-04-26T05:46:45;96857.25;;;11.75;52.64
36598;BME280;22607;49.550;11.940;2023-04-26T05:49:24;96857.44;;;10.80;54.34
36598;BME280;22607;49.550;11.940;2023-04-26T05:51:51;96869.59;;;9.59;57.59
36598;BME280;22607;49.550;11.940;2023-04-26T05:54:17;96870.53;;;10.57;55.99
36598;BME280;22607;49.550;11.940;2023-04-26T05:56:44;96859.25;;;11.88;53.56
36598;BME280;22607;49.550;11.940;2023-04-26T05:59:11;96863.69;;;11.88;52.72
36598;BME280;22607;49.550;11.940;2023-04-26T06:01:38;96860.63;;;12.44;52.02
36598;BME280;22607;49.550;11.940;2023-04-26T06:04:05;96859.09;;;12.20;51.74
36598;BME280;22607;49.550;11.940;2023-04-26T06:06:32;96852.72;;;12.59;51.28
36598;BME280;22607;49.550;11.940;2023-04-26T06:08:59;96847.88;;;12.78;50.13
36598;BME280;22607;49.550;11.940;2023-04-26T06:11:26;96861.91;;;12.85;49.01
36598;BME280;22607;49.550;11.940;2023-04-26T06:16:28;96866.75;;;12.45;49.98
36598;BME280;22607;49.550;11.940;2023-04-26T06:18:54;96868.38;;;12.16;47.63
36598;BME280;22607;49.550;11.940;2023-04-26T06:21:21;96869.38;;;12.15;49.23
36598;BME280;22607;49.550;11.940;2023-04-26T06:23:47;96868.69;;;12.73;48.03
36598;BME280;22607;49.550;11.940;2023-04-26T06:26:14;96862.50;;;12.66;47.33
36598;BME280;22607;49.550;11.940;2023-04-26T06:28:40;96873.28;;;12.19;49.18
36598;BME280;22607;49.550;11.940;2023-04-26T06:31:07;96868.44;;;13.26;46.47
36598;BME280;22607;49.550;11.940;2023-04-26T06:33:34;96864.34;;;13.24;45.59
36598;BME280;22607;49.550;11.940;2023-04-26T06:36:00;96867.44;;;12.54;46.33
36598;BME280;22607;49.550;11.940;2023-04-26T06:38:26;96880.22;;;12.72;45.86
36598;BME280;22607;49.550;11.940;2023-04-26T06:40:54;96871.75;;;13.13;46.77
36598;BME280;22607;49.550;11.940;2023-04-26T06:43:21;96876.28;;;12.46;46.10
36598;BME280;22607;49.550;11.940;2023-04-26T06:45:47;96881.97;;;12.50;45.01
36598;BME280;22607;49.550;11.940;2023-04-26T06:48:14;96873.59;;;13.13;45.98
36598;BME280;22607;49.550;11.940;2023-04-26T06:50:40;96873.28;;;13.67;44.22
36598;BME280;22607;49.550;11.940;2023-04-26T06:53:07;96872.38;;;13.37;43.73
36598;BME280;22607;49.550;11.940;2023-04-26T06:55:33;96875.81;;;13.53;45.46
36598;BME280;22607;49.550;11.940;2023-04-26T06:58:00;96875.38;;;13.78;42.45
36598;BME280;22607;49.550;11.940;2023-04-26T07:00:26;96870.75;;;13.15;43.36
36598;BME280;22607;49.550;11.940;2023-04-26T07:02:53;96871.97;;;13.56;43.59
36598;BME280;22607;49.550;11.940;2023-04-26T07:05:20;96880.28;;;13.81;42.35
36598;BME280;22607;49.550;11.940;2023-04-26T07:07:47;96873.38;;;14.15;43.72
36598;BME280;22607;49.550;11.940;2023-04-26T07:10:13;96866.78;;;13.98;41.03
36598;BME280;22607;49.550;11.940;2023-04-26T07:12:40;96870.66;;;14.02;41.30
36598;BME280;22607;49.550;11.940;2023-04-26T07:15:06;96875.84;;;13.88;41.08
36598;BME280;22607;49.550;11.940;2023-04-26T07:17:33;96874.94;;;13.74;39.52
36598;BME280;22607;49.550;11.940;2023-04-26T07:19:59;96872.69;;;14.35;40.55
36598;BME280;22607;49.550;11.940;2023-04-26T07:22:26;96869.56;;;14.60;42.67
36598;BME280;22607;49.550;11.940;2023-04-26T07:24:52;96866.47;;;14.56;38.41
36598;BME280;22607;49.550;11.940;2023-04-26T07:27:19;96877.25;;;13.19;42.28
36598;BME280;22607;49.550;11.940;2023-04-26T07:29:46;96870.09;;;13.78;41.87
36598;BME280;22607;49.550;11.940;2023-04-26T07:32:13;96870.91;;;14.07;41.75
36598;BME280;22607;49.550;11.940;2023-04-26T07:34:40;96876.88;;;13.87;40.77
36598;BME280;22607;49.550;11.940;2023-04-26T07:37:07;96879.94;;;14.62;39.94
36598;BME280;22607;49.550;11.940;2023-04-26T07:39:33;96873.25;;;14.24;37.87
36598;BME280;22607;49.550;11.940;2023-04-26T07:42:00;96875.28;;;15.46;35.78
36598;BME280;22607;49.550;11.940;2023-04-26T07:44:26;96868.97;;;15.68;38.62
36598;BME280;22607;49.550;11.940;2023-04-26T07:46:53;96871.72;;;14.92;38.62
36598;BME280;22607;49.550;11.940;2023-04-26T07:49:19;96872.84;;;15.25;38.08
36598;BME280;22607;49.550;11.940;2023-04-26T07:51:47;96871.97;;;15.04;39.06
36598;BME280;22607;49.550;11.940;2023-04-26T07:54:14;96883.16;;;13.86;39.54
36598;BME280;22607;49.550;11.940;2023-04-26T07:56:40;96882.50;;;12.75;40.91
36598;BME280;22607;49.550;11.940;2023-04-26T07:59:07;96885.06;;;13.27;42.22
36598;BME280;22607;49.550;11.940;2023-04-26T08:01:33;96879.28;;;14.53;40.05
36598;BME280;22607;49.550;11.940;2023-04-26T08:04:00;96875.34;;;12.54;41.43
36598;BME280;22607;49.550;11.940;2023-04-26T08:06:27;96870.13;;;14.13;40.58
36598;BME280;22607;49.550;11.940;2023-04-26T08:08:54;96880.97;;;12.66;40.62
36598;BME280;22607;49.550;11.940;2023-04-26T08:11:20;96885.94;;;12.00;41.43
36598;BME280;22607;49.550;11.940;2023-04-26T08:13:47;96876.13;;;13.28;42.17
36598;BME280;22607;49.550;11.940;2023-04-26T08:16:14;96875.00;;;13.81;39.59
36598;BME280;22607;49.550;11.940;2023-04-26T08:18:40;96874.50;;;14.28;40.22
36598;BME280;22607;49.550;11.940;2023-04-26T08:21:10;96883.66;;;12.88;38.87
36598;BME280;22607;49.550;11.940;2023-04-26T08:23:37;96875.09;;;12.85;39.72
36598;BME280;22607;49.550;11.940;2023-04-26T08:26:03;96886.72;;;12.54;40.60
36598;BME280;22607;49.550;11.940;2023-04-26T08:28:30;96885.63;;;13.44;39.39
36598;BME280;22607;49.550;11.940;2023-04-26T08:30:56;96874.97;;;14.45;37.46
36598;BME280;22607;49.550;11.940;2023-04-26T08:33:23;96871.91;;;14.41;34.38
36598;BME280;22607;49.550;11.940;2023-04-26T08:35:50;96878.03;;;14.49;36.00
36598;BME280;22607;49.550;11.940;2023-04-26T08:38:17;96886.72;;;12.91;36.47
36598;BME280;22607;49.550;11.940;2023-04-26T08:40:44;96881.47;;;12.76;38.32
36598;BME280;22607;49.550;11.940;2023-04-26T08:43:12;96887.28;;;11.96;38.91
36598;BME280;22607;49.550;11.940;2023-04-26T08:45:39;96896.09;;;11.26;40.75
36598;BME280;22607;49.550;11.940;2023-04-26T08:48:08;96898.59;;;12.05;41.77
36598;BME280;22607;49.550;11.940;2023-04-26T08:50:37;96893.28;;;11.90;42.08
36598;BME280;22607;49.550;11.940;2023-04-26T08:53:03;96900.88;;;11.46;42.27
36598;BME280;22607;49.550;11.940;2023-04-26T08:55:31;96902.75;;;11.37;41.67
36598;BME280;22607;49.550;11.940;2023-04-26T08:57:58;96902.56;;;11.39;42.80
36598;BME280;22607;49.550;11.940;2023-04-26T09:00:26;96911.41;;;11.23;42.87
36598;BME280;22607;49.550;11.940;2023-04-26T09:02:52;96905.97;;;11.24;43.61
36598;BME280;22607;49.550;11.940;2023-04-26T09:05:19;96898.88;;;11.25;42.70
36598;BME280;22607;49.550;11.940;2023-04-26T09:07:50;96892.78;;;11.71;42.55
36598;BME280;22607;49.550;11.940;2023-04-26T09:10:19;96895.00;;;12.21;43.86
36598;BME280;22607;49.550;11.940;2023-04-26T09:12:50;96893.25;;;12.58;41.45
36598;BME280;22607;49.550;11.940;2023-04-26T09:15:16;96893.34;;;12.50;42.18
36598;BME280;22607;49.550;11.940;2023-04-26T09:17:43;96895.31;;;12.48;40.85
36598;BME280;22607;49.550;11.940;2023-04-26T09:22:43;96894.16;;;12.36;42.33
36598;BME280;22607;49.550;11.940;2023-04-26T09:25:11;96890.81;;;11.88;42.14
36598;BME280;22607;49.550;11.940;2023-04-26T09:27:39;96893.69;;;11.78;42.25
36598;BME280;22607;49.550;11.940;2023-04-26T09:30:07;96894.53;;;11.55;41.91
36598;BME280;22607;49.550;11.940;2023-04-26T09:38:05;96892.81;;;11.24;43.02
36598;BME280;22607;49.550;11.940;2023-04-26T09:40:41;96887.50;;;11.33;44.17
36598;BME280;22607;49.550;11.940;2023-04-26T09:43:12;96884.66;;;11.96;41.32
36598;BME280;22607;49.550;11.940;2023-04-26T09:48:34;96879.56;;;11.79;40.54
36598;BME280;22607;49.550;11.940;2023-04-26T09:53:31;96876.16;;;11.94;39.62
36598;BME280;22607;49.550;11.940;2023-04-26T09:56:06;96883.78;;;11.65;40.07
36598;BME280;22607;49.550;11.940;2023-04-26T09:58:55;96880.06;;;11.13;39.78
36598;BME280;22607;49.550;11.940;2023-04-26T10:01:24;96885.03;;;11.08;41.99
36598;BME280;22607;49.550;11.940;2023-04-26T10:03:51;96885.69;;;11.10;41.56
36598;BME280;22607;49.550;11.940;2023-04-26T10:06:18;96892.81;;;11.24;40.93
36598;BME280;22607;49.550;11.940;2023-04-26T10:08:44;96884.78;;;10.94;41.17
36598;BME280;22607;49.550;11.940;2023-04-26T10:11:11;96885.75;;;11.87;40.77
36598;BME280;22607;49.550;11.940;2023-04-26T10:13:38;96876.25;;;12.98;40.67
36598;BME280;22607;49.550;11.940;2023-04-26T10:18:53;96867.59;;;13.70;37.90
36598;BME280;22607;49.550;11.940;2023-04-26T10:21:21;96858.31;;;12.86;36.05
36598;BME280;22607;49.550;11.940;2023-04-26T10:23:51;96866.91;;;12.43;37.96
36598;BME280;22607;49.550;11.940;2023-04-26T10:29:23;96870.44;;;12.05;39.82
36598;BME280;22607;49.550;11.940;2023-04-26T10:34:30;96869.44;;;11.29;36.25
36598;BME280;22607;49.550;11.940;2023-04-26T10:37:06;96872.03;;;11.76;37.89
36598;BME280;22607;49.550;11.940;2023-04-26T10:39:34;96863.19;;;12.53;36.07
36598;BME280;22607;49.550;11.940;2023-04-26T10:44:52;96853.84;;;13.09;35.83
36598;BME280;22607;49.550;11.940;2023-04-26T10:47:24;96847.25;;;13.42;36.44
36598;BME280;22607;49.550;11.940;2023-04-26T10:49:51;96855.47;;;14.04;39.27
36598;BME280;22607;49.550;11.940;2023-04-26T10:52:18;96843.59;;;13.64;35.06
36598;BME280;22607;49.550;11.940;2023-04-26T10:54:49;96848.75;;;14.01;34.34
36598;BME280;22607;49.550;11.940;2023-04-26T10:57:16;96850.66;;;13.57;35.47
36598;BME280;22607;49.550;11.940;2023-04-26T11:00:17;96839.94;;;13.65;37.70
36598;BME280;22607;49.550;11.940;2023-04-26T11:02:45;96848.13;;;12.83;34.94
36598;BME280;22607;49.550;11.940;2023-04-26T11:08:16;96848.66;;;12.57;37.56
36598;BME280;22607;49.550;11.940;2023-04-26T11:10:44;96850.25;;;12.95;36.07
36598;BME280;22607;49.550;11.940;2023-04-26T11:13:11;96852.91;;;12.43;35.02
36598;BME280;22607;49.550;11.940;2023-04-26T11:15:38;96857.72;;;12.09;37.72
36598;BME280;22607;49.550;11.940;2023-04-26T11:18:04;96852.72;;;11.84;36.01
36598;BME280;22607;49.550;11.940;2023-04-26T11:20:31;96854.47;;;12.07;39.64
36598;BME280;22607;49.550;11.940;2023-04-26T11:22:58;96844.56;;;12.54;36.16
36598;BME280;22607;49.550;11.940;2023-04-26T11:25:25;96837.78;;;12.67;36.33
36598;BME280;22607;49.550;11.940;2023-04-26T11:27:59;96845.19;;;12.41;34.43
36598;BME280;22607;49.550;11.940;2023-04-26T11:30:30;96844.44;;;12.63;36.19
36598;BME280;22607;49.550;11.940;2023-04-26T11:32:57;96849.06;;;12.76;36.88
36598;BME280;22607;49.550;11.940;2023-04-26T11:35:24;96837.72;;;12.97;38.00
36598;BME280;22607;49.550;11.940;2023-04-26T11:37:51;96840.53;;;13.39;34.77
36598;BME280;22607;49.550;11.940;2023-04-26T11:40:18;96829.56;;;13.35;35.92
36598;BME280;22607;49.550;11.940;2023-04-26T11:42:44;96838.69;;;13.55;33.77
36598;BME280;22607;49.550;11.940;2023-04-26T11:45:11;96832.75;;;13.52;37.30
36598;BME280;22607;49.550;11.940;2023-04-26T11:47:37;96827.53;;;13.59;34.99
36598;BME280;22607;49.550;11.940;2023-04-26T11:50:05;96835.72;;;13.21;34.65
36598;BME280;22607;49.550;11.940;2023-04-26T11:52:31;96828.19;;;13.61;35.00
36598;BME280;22607;49.550;11.940;2023-04-26T11:55:02;96827.69;;;13.80;35.50
36598;BME280;22607;49.550;11.940;2023-04-26T11:57:29;96826.28;;;13.55;34.26
36598;BME280;22607;49.550;11.940;2023-04-26T12:00:13;96828.06;;;13.48;34.79
36598;BME280;22607;49.550;11.940;2023-04-26T12:02:46;96819.75;;;13.80;33.93
36598;BME280;22607;49.550;11.940;2023-04-26T12:05:19;96826.88;;;14.14;34.96
36598;BME280;22607;49.550;11.940;2023-04-26T12:07:50;96827.34;;;14.31;35.45
36598;BME280;22607;49.550;11.940;2023-04-26T12:10:18;96822.38;;;14.08;34.54
36598;BME280;22607;49.550;11.940;2023-04-26T12:12:52;96814.25;;;14.59;34.72
36598;BME280;22607;49.550;11.940;2023-04-26T12:15:23;96819.16;;;14.20;35.45
36598;BME280;22607;49.550;11.940;2023-04-26T12:18:04;96825.88;;;13.80;34.11
36598;BME280;22607;49.550;11.940;2023-04-26T12:20:32;96825.66;;;13.53;32.51
36598;BME280;22607;49.550;11.940;2023-04-26T12:25:34;96823.44;;;13.35;35.53
36598;BME280;22607;49.550;11.940;2023-04-26T12:28:02;96814.16;;;13.39;36.43
36598;BME280;22607;49.550;11.940;2023-04-26T12:30:29;96808.94;;;13.46;33.92
36598;BME280;22607;49.550;11.940;2023-04-26T12:32:55;96820.75;;;13.50;34.14
36598;BME280;22607;49.550;11.940;2023-04-26T12:35:40;96813.47;;;13.30;34.50
36598;BME280;22607;49.550;11.940;2023-04-26T12:38:07;96814.25;;;13.24;34.54
36598;BME280;22607;49.550;11.940;2023-04-26T12:40:33;96805.16;;;13.26;37.11
36598;BME280;22607;49.550;11.940;2023-04-26T12:42:59;96809.59;;;13.26;35.59
36598;BME280;22607;49.550;11.940;2023-04-26T12:45:28;96812.75;;;13.15;35.00
36598;BME280;22607;49.550;11.940;2023-04-26T12:47:54;96800.63;;;12.98;34.88
36598;BME280;22607;49.550;11.940;2023-04-26T12:50:21;96800.16;;;13.38;35.05
36598;BME280;22607;49.550;11.940;2023-04-26T12:52:48;96803.66;;;13.46;34.60
36598;BME280;22607;49.550;11.940;2023-04-26T12:55:14;96796.47;;;13.55;36.93
36598;BME280;22607;49.550;11.940;2023-04-26T12:57:42;96796.09;;;13.64;37.18
36598;BME280;22607;49.550;11.940;2023-04-26T13:00:09;96804.31;;;13.04;36.00
36598;BME280;22607;49.550;11.940;2023-04-26T13:02:36;96807.97;;;13.25;36.21
36598;BME280;22607;49.550;11.940;2023-04-26T13:05:04;96806.69;;;13.43;36.54
36598;BME280;22607;49.550;11.940;2023-04-26T13:07:35;96799.28;;;13.88;34.93
36598;BME280;22607;49.550;11.940;2023-04-26T13:10:02;96795.25;;;13.93;35.29
36598;BME280;22607;49.550;11.940;2023-04-26T13:12:29;96804.25;;;13.70;36.62
36598;BME280;22607;49.550;11.940;2023-04-26T13:14:57;96803.13;;;13.29;35.25
36598;BME280;22607;49.550;11.940;2023-04-26T13:17:24;96797.44;;;13.82;35.62
36598;BME280;22607;49.550;11.940;2023-04-26T13:19:51;96800.34;;;13.94;36.43
36598;BME280;22607;49.550;11.940;2023-04-26T13:22:18;96802.81;;;13.67;35.00
36598;BME280;22607;49.550;11.940;2023-04-26T13:24:45;96809.44;;;13.56;36.70
36598;BME280;22607;49.550;11.940;2023-04-26T13:27:12;96806.06;;;13.98;34.61
36598;BME280;22607;49.550;11.940;2023-04-26T13:29:39;96799.06;;;13.83;33.58